createdAt,value
2019-04-10T00:00:44.077Z,996.59
2019-04-10T00:01:42.343Z,996.64
2019-04-10T00:02:40.150Z,996.61
2019-04-10T00:03:40.717Z,996.62
2019-04-10T00:04:37.351Z,996.62
2019-04-10T00:05:36.167Z,996.66
2019-04-10T00:06:34.844Z,996.65
2019-04-10T00:07:33.440Z,996.66
2019-04-10T00:08:32.445Z,996.63
2019-04-10T00:09:30.802Z,996.63
2019-04-10T00:10:29.934Z,996.61
2019-04-10T00:11:28.979Z,996.59
2019-04-10T00:12:26.819Z,996.68
2019-04-10T00:13:25.545Z,996.58
2019-04-10T00:14:24.143Z,996.63
2019-04-10T00:15:22.930Z,996.67
2019-04-10T00:16:22.392Z,996.66
2019-04-10T00:17:20.742Z,996.62
2019-04-10T00:18:19.997Z,996.63
2019-04-10T00:19:18.253Z,996.64
2019-04-10T00:20:16.476Z,996.67
2019-04-10T00:21:15.496Z,996.64
2019-04-10T00:22:13.947Z,996.61
2019-04-10T00:23:13.124Z,996.59
2019-04-10T00:24:11.465Z,996.6
2019-04-10T00:25:10.590Z,996.62
2019-04-10T00:26:08.273Z,996.6
2019-04-10T00:27:07.179Z,996.61
2019-04-10T00:28:05.628Z,996.59
2019-04-10T00:29:04.206Z,996.59
2019-04-10T00:30:02.946Z,996.5
2019-04-10T00:31:01.902Z,996.55
2019-04-10T00:32:01.666Z,996.56
2019-04-10T00:32:58.677Z,996.56
2019-04-10T00:33:57.419Z,996.56
2019-04-10T00:34:56.166Z,996.53
2019-04-10T00:35:54.750Z,996.55
2019-04-10T00:36:53.411Z,996.56
2019-04-10T00:37:51.897Z,996.56
2019-04-10T00:38:50.537Z,996.48
2019-04-10T00:39:49.134Z,996.51
2019-04-10T00:40:47.882Z,996.52
2019-04-10T00:41:46.500Z,996.51
2019-04-10T00:42:45.323Z,996.5
2019-04-10T00:43:43.759Z,996.56
2019-04-10T00:44:42.315Z,996.54
2019-04-10T00:45:41.831Z,996.56
2019-04-10T00:46:40.073Z,996.58
2019-04-10T00:47:39.028Z,996.56
2019-04-10T00:48:36.914Z,996.58
2019-04-10T00:49:35.496Z,996.58
2019-04-10T00:50:34.770Z,996.58
2019-04-10T00:51:33.140Z,996.54
2019-04-10T00:52:32.364Z,996.58
2019-04-10T00:53:30.165Z,996.57
2019-04-10T00:54:29.039Z,996.6
2019-04-10T00:55:28.618Z,996.58
2019-04-10T00:56:26.354Z,996.55
2019-04-10T00:57:25.438Z,996.56
2019-04-10T00:58:23.577Z,996.51
2019-04-10T00:59:22.311Z,996.51
2019-04-10T01:00:21.969Z,996.52
2019-04-10T01:01:19.739Z,996.49
2019-04-10T01:02:18.633Z,996.5
2019-04-10T01:03:17.621Z,996.48
2019-04-10T01:04:15.717Z,996.47
2019-04-10T01:05:15.175Z,996.49
2019-04-10T01:06:13.631Z,996.47
2019-04-10T01:07:12.703Z,996.47
2019-04-10T01:08:10.767Z,996.43
2019-04-10T01:09:09.339Z,996.45
2019-04-10T01:10:08.141Z,996.49
2019-04-10T01:11:06.782Z,996.44
2019-04-10T01:12:05.736Z,996.44
2019-04-10T01:13:04.886Z,996.42
2019-04-10T01:14:02.816Z,996.47
2019-04-10T01:15:02.448Z,996.5
2019-04-10T01:16:00.686Z,996.48
2019-04-10T01:16:59.900Z,996.4
2019-04-10T01:17:57.621Z,996.42
2019-04-10T01:18:56.444Z,996.43
2019-04-10T01:19:54.916Z,996.39
2019-04-10T01:20:53.600Z,996.46
2019-04-10T01:21:52.742Z,996.44
2019-04-10T01:22:51.839Z,996.43
2019-04-10T01:23:49.557Z,996.41
2019-04-10T01:24:48.192Z,996.45
2019-04-10T01:25:46.872Z,996.4
2019-04-10T01:26:45.485Z,996.37
2019-04-10T01:27:44.510Z,996.4
2019-04-10T01:28:42.589Z,996.43
2019-04-10T01:29:41.884Z,996.39
2019-04-10T01:30:40.287Z,996.43
2019-04-10T01:31:39.393Z,996.42
2019-04-10T01:32:37.212Z,996.42
2019-04-10T01:33:36.722Z,996.48
2019-04-10T01:34:35.701Z,996.47
2019-04-10T01:35:34.188Z,996.42
2019-04-10T01:36:31.948Z,996.41
2019-04-10T01:37:30.699Z,996.43
2019-04-10T01:38:29.446Z,996.44
2019-04-10T01:39:28.513Z,996.45
2019-04-10T01:40:26.832Z,996.49
2019-04-10T01:41:25.840Z,996.42
2019-04-10T01:42:24.839Z,996.39
2019-04-10T01:43:22.787Z,996.39
2019-04-10T01:44:21.341Z,996.41
2019-04-10T01:45:19.907Z,996.46
2019-04-10T01:46:19.247Z,996.4
2019-04-10T01:47:17.874Z,996.41
2019-04-10T01:48:17.464Z,996.45
2019-04-10T01:49:15.635Z,996.4
2019-04-10T01:50:14.511Z,996.4
2019-04-10T01:51:12.506Z,996.42
2019-04-10T01:52:11.350Z,996.43
2019-04-10T01:53:10.006Z,996.4
2019-04-10T01:54:09.044Z,996.43
2019-04-10T01:55:16.730Z,996.41
2019-04-10T01:56:15.610Z,996.42
2019-04-10T01:57:04.826Z,996.43
2019-04-10T01:58:03.413Z,996.4
2019-04-10T01:59:01.991Z,996.42
2019-04-10T02:00:00.872Z,996.39
2019-04-10T02:00:59.636Z,996.36
2019-04-10T02:01:58.901Z,996.43
2019-04-10T02:02:57.928Z,996.44
2019-04-10T02:03:55.592Z,996.39
2019-04-10T02:04:55.186Z,996.42
2019-04-10T02:05:53.031Z,996.42
2019-04-10T02:06:51.737Z,996.4
2019-04-10T02:08:00.890Z,996.36
2019-04-10T02:08:49.684Z,996.38
2019-04-10T02:09:47.740Z,996.37
2019-04-10T02:10:45.933Z,996.42
2019-04-10T02:11:44.681Z,996.41
2019-04-10T02:12:43.769Z,996.4
2019-04-10T02:13:42.112Z,996.41
2019-04-10T02:14:40.690Z,996.43
2019-04-10T02:15:39.270Z,996.36
2019-04-10T02:16:38.907Z,996.36
2019-04-10T02:17:36.849Z,996.35
2019-04-10T02:18:35.262Z,996.37
2019-04-10T02:19:34.357Z,996.35
2019-04-10T02:20:32.397Z,996.33
2019-04-10T02:21:31.780Z,996.38
2019-04-10T02:22:30.763Z,996.41
2019-04-10T02:23:28.316Z,996.37
2019-04-10T02:24:27.273Z,996.36
2019-04-10T02:25:25.475Z,996.35
2019-04-10T02:26:24.073Z,996.36
2019-04-10T02:27:22.923Z,996.33
2019-04-10T02:28:22.714Z,996.32
2019-04-10T02:29:20.377Z,996.34
2019-04-10T02:32:59.732Z,996.32
2019-04-10T02:33:59.851Z,996.28
2019-04-10T02:34:57.513Z,996.29
2019-04-10T02:35:55.240Z,996.26
2019-04-10T02:36:55.250Z,996.27
2019-04-10T02:37:55.495Z,996.3
2019-04-10T02:39:01.559Z,996.31
2019-04-10T02:39:52.622Z,996.3
2019-04-10T02:40:49.998Z,996.26
2019-04-10T02:50:21.489Z,996.31
2019-04-10T02:51:20.159Z,996.29
2019-04-10T02:52:20.102Z,996.28
2019-04-10T02:53:19.028Z,996.29
2019-04-10T02:54:17.532Z,996.31
2019-04-10T02:55:16.649Z,996.35
2019-04-10T02:56:13.754Z,996.35
2019-04-10T02:57:13.480Z,996.31
2019-04-10T02:58:10.852Z,996.33
2019-04-10T03:00:28.300Z,996.34
2019-04-10T03:01:27.221Z,996.34
2019-04-10T03:02:26.572Z,996.36
2019-04-10T03:03:25.388Z,996.4
2019-04-10T03:04:22.680Z,996.4
2019-04-10T03:05:22.877Z,996.33
2019-04-10T03:06:20.632Z,996.34
2019-04-10T03:07:19.842Z,996.34
2019-04-10T03:08:17.475Z,996.37
2019-04-10T03:09:31.742Z,996.41
2019-04-10T03:10:23.888Z,996.37
2019-04-10T03:11:14.481Z,996.39
2019-04-10T03:12:12.961Z,996.33
2019-04-10T03:13:11.631Z,996.32
2019-04-10T03:14:10.553Z,996.35
2019-04-10T03:15:09.958Z,996.39
2019-04-10T03:16:07.467Z,996.36
2019-04-10T03:17:05.986Z,996.34
2019-04-10T03:18:04.253Z,996.37
2019-04-10T03:19:03.260Z,996.41
2019-04-10T03:20:02.401Z,996.38
2019-04-10T03:20:59.886Z,996.34
2019-04-10T03:21:59.604Z,996.37
2019-04-10T03:22:57.431Z,996.33
2019-04-10T03:23:56.072Z,996.33
2019-04-10T03:24:54.758Z,996.31
2019-04-10T03:25:53.379Z,996.34
2019-04-10T03:26:52.187Z,996.34
2019-04-10T03:27:50.602Z,996.29
2019-04-10T03:28:49.395Z,996.33
2019-04-10T03:29:48.455Z,996.28
2019-04-10T03:30:48.744Z,996.3
2019-04-10T03:31:47.464Z,996.38
2019-04-10T03:32:48.742Z,996.33
2019-04-10T03:33:46.724Z,996.3
2019-04-10T03:34:43.798Z,996.29
2019-04-10T03:35:41.000Z,996.31
2019-04-10T03:36:40.074Z,996.33
2019-04-10T03:37:37.878Z,996.29
2019-04-10T03:38:48.430Z,996.38
2019-04-10T03:39:35.945Z,996.3
2019-04-10T03:40:33.976Z,996.32
2019-04-10T03:41:33.183Z,996.31
2019-04-10T03:42:31.478Z,996.27
2019-04-10T03:43:30.083Z,996.29
2019-04-10T03:44:28.884Z,996.29
2019-04-10T03:45:28.545Z,996.29
2019-04-10T03:46:26.265Z,996.3
2019-04-10T03:47:25.142Z,996.29
2019-04-10T03:48:23.576Z,996.37
2019-04-10T03:49:22.173Z,996.34
2019-04-10T03:50:20.844Z,996.3
2019-04-10T03:51:20.605Z,996.34
2019-04-10T03:52:18.989Z,996.35
2019-04-10T03:53:18.042Z,996.33
2019-04-10T03:54:15.546Z,996.33
2019-04-10T03:55:14.156Z,996.35
2019-04-10T03:56:13.786Z,996.36
2019-04-10T03:57:12.077Z,996.38
2019-04-10T03:58:11.270Z,996.34
2019-04-10T03:59:08.961Z,996.4
2019-04-10T04:00:07.507Z,996.39
2019-04-10T04:01:06.893Z,996.37
2019-04-10T04:02:05.264Z,996.37
2019-04-10T04:03:04.121Z,996.38
2019-04-10T04:04:01.811Z,996.4
2019-04-10T04:05:00.381Z,996.38
2019-04-10T04:06:00.093Z,996.39
2019-04-10T04:06:57.825Z,996.41
2019-04-10T04:07:57.079Z,996.44
2019-04-10T04:11:35.465Z,996.41
2019-04-10T04:12:34.989Z,996.44
2019-04-10T04:13:33.330Z,996.46
2019-04-10T04:14:32.503Z,996.47
2019-04-10T04:15:30.356Z,996.43
2019-04-10T04:16:28.648Z,996.45
2019-04-10T04:17:28.252Z,996.45
2019-04-10T04:18:26.855Z,996.39
2019-04-10T04:19:24.391Z,996.48
2019-04-10T04:20:23.221Z,996.41
2019-04-10T04:21:21.705Z,996.45
2019-04-10T04:22:20.837Z,996.44
2019-04-10T04:23:19.376Z,996.47
2019-04-10T04:24:17.814Z,996.51
2019-04-10T04:25:16.985Z,996.53
2019-04-10T04:26:14.799Z,996.52
2019-04-10T04:27:13.302Z,996.48
2019-04-10T04:28:11.921Z,996.51
2019-04-10T04:29:10.709Z,996.51
2019-04-10T04:30:09.195Z,996.49
2019-04-10T04:31:07.734Z,996.5
2019-04-10T04:32:06.960Z,996.45
2019-04-10T04:33:05.310Z,996.49
2019-04-10T04:34:04.047Z,996.52
2019-04-10T04:35:02.493Z,996.5
2019-04-10T04:36:01.990Z,996.53
2019-04-10T04:37:00.331Z,996.44
2019-04-10T04:37:58.373Z,996.55
2019-04-10T04:38:57.668Z,996.5
2019-04-10T04:39:56.249Z,996.55
2019-04-10T04:40:54.776Z,996.58
2019-04-10T04:41:52.511Z,996.56
2019-04-10T04:42:51.401Z,996.56
2019-04-10T04:43:50.132Z,996.56
2019-04-10T04:44:48.922Z,996.59
2019-04-10T04:45:48.367Z,996.57
2019-04-10T04:46:46.152Z,996.55
2019-04-10T04:47:45.146Z,996.58
2019-04-10T04:48:43.724Z,996.65
2019-04-10T04:49:42.358Z,996.62
2019-04-10T04:50:41.586Z,996.67
2019-04-10T04:51:39.725Z,996.66
2019-04-10T04:52:39.079Z,996.72
2019-04-10T04:53:37.228Z,996.7
2019-04-10T04:54:35.820Z,996.67
2019-04-10T04:55:35.227Z,996.76
2019-04-10T04:56:33.754Z,996.68
2019-04-10T04:57:34.054Z,996.72
2019-04-10T04:58:30.503Z,996.71
2019-04-10T04:59:28.863Z,996.75
2019-04-10T05:00:27.808Z,996.73
2019-04-10T05:01:26.222Z,996.75
2019-04-10T05:02:24.855Z,996.75
2019-04-10T05:03:23.572Z,996.77
2019-04-10T05:04:22.879Z,996.77
2019-04-10T05:05:20.950Z,996.77
2019-04-10T05:06:20.100Z,996.79
2019-04-10T05:07:17.950Z,996.84
2019-04-10T05:08:17.412Z,996.75
2019-04-10T05:09:27.099Z,996.81
2019-04-10T05:10:13.913Z,996.84
2019-04-10T05:11:12.503Z,996.79
2019-04-10T05:12:11.303Z,996.87
2019-04-10T05:13:10.274Z,996.86
2019-04-10T05:14:08.238Z,996.88
2019-04-10T05:15:07.118Z,996.91
2019-04-10T05:16:06.168Z,996.87
2019-04-10T05:20:49.675Z,996.97
2019-04-10T05:21:44.017Z,996.93
2019-04-10T05:22:43.614Z,996.92
2019-04-10T05:24:40.418Z,996.91
2019-04-10T05:25:38.667Z,996.94
2019-04-10T05:26:37.425Z,996.98
2019-04-10T05:27:35.926Z,996.99
2019-04-10T05:28:34.617Z,996.98
2019-04-10T05:29:34.501Z,996.97
2019-04-10T05:30:31.942Z,997.02
2019-04-10T05:31:30.581Z,997
2019-04-10T05:32:29.193Z,996.98
2019-04-10T05:33:28.660Z,997.01
2019-04-10T05:34:27.513Z,997.02
2019-04-10T05:35:25.702Z,997.04
2019-04-10T05:36:23.591Z,997.02
2019-04-10T05:39:22.459Z,997.03
2019-04-10T05:40:20.224Z,997.08
2019-04-10T05:41:19.645Z,997.07
2019-04-10T05:42:17.464Z,997.08
2019-04-10T05:43:15.993Z,997.07
2019-04-10T05:44:16.464Z,997.09
2019-04-10T05:45:13.543Z,997.08
2019-04-10T05:46:12.351Z,997.11
2019-04-10T05:47:11.735Z,997.12
2019-04-10T05:48:09.610Z,997.13
2019-04-10T05:49:08.691Z,997.11
2019-04-10T05:50:06.902Z,997.1
2019-04-10T05:51:07.775Z,997.16
2019-04-10T05:52:04.457Z,997.12
2019-04-10T05:53:04.284Z,997.12
2019-04-10T05:54:02.261Z,997.09
2019-04-10T05:55:00.370Z,997.14
2019-04-10T05:55:59.073Z,997.14
2019-04-10T05:56:57.655Z,997.16
2019-04-10T05:57:57.976Z,997.17
2019-04-10T05:58:55.014Z,997.13
2019-04-10T05:59:54.367Z,997.2
2019-04-10T06:00:53.377Z,997.21
2019-04-10T06:01:51.178Z,997.2
2019-04-10T06:02:50.267Z,997.23
2019-04-10T06:03:49.140Z,997.19
2019-04-10T06:04:47.110Z,997.22
2019-04-10T06:05:46.526Z,997.2
2019-04-10T06:06:44.386Z,997.21
2019-04-10T06:07:43.498Z,997.19
2019-04-10T06:08:41.710Z,997.22
2019-04-10T06:09:51.828Z,997.24
2019-04-10T06:10:39.476Z,997.22
2019-04-10T06:11:37.687Z,997.26
2019-04-10T06:12:36.262Z,997.27
2019-04-10T06:13:34.821Z,997.24
2019-04-10T06:14:34.430Z,997.26
2019-04-10T06:15:31.937Z,997.25
2019-04-10T06:16:30.490Z,997.2
2019-04-10T06:17:30.100Z,997.23
2019-04-10T06:18:27.753Z,997.22
2019-04-10T06:19:26.898Z,997.22
2019-04-10T06:20:25.138Z,997.23
2019-04-10T06:21:23.602Z,997.2
2019-04-10T06:22:22.874Z,997.21
2019-04-10T06:23:21.268Z,997.27
2019-04-10T06:24:20.362Z,997.28
2019-04-10T06:25:19.446Z,997.22
2019-04-10T06:26:17.484Z,997.26
2019-04-10T06:27:16.376Z,997.27
2019-04-10T06:28:14.917Z,997.25
2019-04-10T06:29:12.931Z,997.25
2019-04-10T06:30:12.074Z,997.25
2019-04-10T06:31:09.975Z,997.23
2019-04-10T06:32:09.470Z,997.22
2019-04-10T06:33:07.522Z,997.2
2019-04-10T06:34:06.800Z,997.26
2019-04-10T06:35:04.335Z,997.23
2019-04-10T06:36:02.942Z,997.22
2019-04-10T06:37:01.867Z,997.28
2019-04-10T06:38:00.173Z,997.26
2019-04-10T06:38:58.898Z,997.24
2019-04-10T06:40:06.479Z,997.24
2019-04-10T06:40:56.230Z,997.22
2019-04-10T06:41:55.975Z,997.18
2019-04-10T06:42:54.928Z,997.24
2019-04-10T06:43:52.815Z,997.22
2019-04-10T06:44:50.723Z,997.16
2019-04-10T06:45:50.305Z,997.18
2019-04-10T06:46:48.590Z,997.2
2019-04-10T06:47:46.890Z,997.23
2019-04-10T06:48:45.415Z,997.27
2019-04-10T06:49:44.064Z,997.27
2019-04-10T06:50:43.194Z,997.25
2019-04-10T06:51:41.572Z,997.23
2019-04-10T06:52:40.987Z,997.29
2019-04-10T06:53:39.337Z,997.32
2019-04-10T06:54:38.469Z,997.34
2019-04-10T06:55:36.446Z,997.29
2019-04-10T06:56:35.425Z,997.33
2019-04-10T06:57:44.919Z,997.28
2019-04-10T06:58:31.932Z,997.34
2019-04-10T06:59:30.494Z,997.33
2019-04-10T07:00:29.108Z,997.29
2019-04-10T07:01:39.222Z,997.3
2019-04-10T07:02:29.450Z,997.32
2019-04-10T07:03:28.909Z,997.31
2019-04-10T07:04:25.181Z,997.34
2019-04-10T07:05:22.044Z,997.33
2019-04-10T07:06:22.639Z,997.35
2019-04-10T07:07:21.490Z,997.31
2019-04-10T07:08:21.230Z,997.31
2019-04-10T07:09:18.157Z,997.3
2019-04-10T07:10:25.604Z,997.35
2019-04-10T07:11:18.027Z,997.3
2019-04-10T07:12:12.585Z,997.31
2019-04-10T07:13:13.017Z,997.36
2019-04-10T07:14:12.509Z,997.34
2019-04-10T07:15:08.500Z,997.35
2019-04-10T07:16:06.843Z,997.35
2019-04-10T07:17:07.103Z,997.34
2019-04-10T07:18:04.058Z,997.38
2019-04-10T07:19:04.622Z,997.34
2019-04-10T07:20:01.921Z,997.37
2019-04-10T07:21:01.561Z,997.34
2019-04-10T07:22:01.122Z,997.39
2019-04-10T07:22:58.220Z,997.38
2019-04-10T07:24:00.255Z,997.36
2019-04-10T07:24:54.514Z,997.43
2019-04-10T07:25:54.804Z,997.4
2019-04-10T07:26:51.549Z,997.38
2019-04-10T07:27:50.144Z,997.4
2019-04-10T07:28:49.221Z,997.38
2019-04-10T07:29:50.744Z,997.41
2019-04-10T07:30:45.830Z,997.41
2019-04-10T07:34:26.729Z,997.46
2019-04-10T07:35:23.661Z,997.44
2019-04-10T07:36:21.825Z,997.46
2019-04-10T07:37:22.736Z,997.48
2019-04-10T07:38:21.179Z,997.47
2019-04-10T07:39:17.721Z,997.46
2019-04-10T08:02:49.631Z,997.57
2019-04-10T08:03:50.879Z,997.67
2019-04-10T08:04:47.504Z,997.61
2019-04-10T08:05:46.022Z,997.61
2019-04-10T08:06:44.680Z,997.64
2019-04-10T08:07:43.121Z,997.61
2019-04-10T08:08:42.519Z,997.61
2019-04-10T08:09:40.093Z,997.68
2019-04-10T08:10:38.811Z,997.64
2019-04-10T08:11:38.110Z,997.61
2019-04-10T08:12:42.290Z,997.65
2019-04-10T08:15:18.894Z,997.65
2019-04-10T08:16:17.009Z,997.69
2019-04-10T08:17:16.327Z,997.64
2019-04-10T08:18:14.660Z,997.63
2019-04-10T08:19:12.483Z,997.65
2019-04-10T08:20:11.052Z,997.68
2019-04-10T08:21:09.724Z,997.67
2019-04-10T08:22:08.427Z,997.81
2019-04-10T08:23:07.752Z,997.67
2019-04-10T08:24:07.265Z,997.74
2019-04-10T08:25:04.957Z,997.69
2019-04-10T08:26:03.672Z,997.63
2019-04-10T08:27:03.239Z,997.62
2019-04-10T08:28:00.784Z,997.65
2019-04-10T08:28:59.462Z,997.7
2019-04-10T08:29:58.994Z,997.68
2019-04-10T08:30:57.545Z,997.72
2019-04-10T08:31:55.973Z,997.75
2019-04-10T08:33:00.545Z,997.67
2019-04-10T08:33:52.742Z,997.68
2019-04-10T08:34:51.342Z,997.68
2019-04-10T08:35:49.823Z,997.71
2019-04-10T08:36:51.015Z,997.68
2019-04-10T08:37:46.997Z,997.69
2019-04-10T08:38:46.605Z,997.71
2019-04-10T08:39:46.254Z,997.73
2019-04-10T08:40:43.793Z,997.67
2019-04-10T08:44:33.397Z,997.71
2019-04-10T08:45:39.059Z,997.74
2019-04-10T08:46:30.571Z,997.66
2019-04-10T08:47:31.422Z,997.69
2019-04-10T08:48:30.568Z,997.74
2019-04-10T08:49:28.499Z,997.83
2019-04-10T09:11:26.160Z,997.84
2019-04-10T09:12:20.158Z,997.84
2019-04-10T09:13:19.883Z,997.88
2019-04-10T09:14:17.338Z,997.87
2019-04-10T09:15:18.036Z,997.87
2019-04-10T09:16:14.403Z,997.84
2019-04-10T09:17:13.234Z,997.75
2019-04-10T09:18:12.741Z,997.82
2019-04-10T09:19:10.107Z,997.83
2019-04-10T09:20:08.885Z,997.85
2019-04-10T09:21:07.394Z,997.87
2019-04-10T09:22:06.052Z,997.81
2019-04-10T09:23:18.522Z,997.82
2019-04-10T09:24:03.291Z,997.82
2019-04-10T09:25:02.805Z,997.79
2019-04-10T09:26:01.712Z,997.81
2019-04-10T09:26:59.144Z,997.88
2019-04-10T09:27:57.994Z,997.9
2019-04-10T09:28:57.043Z,997.83
2019-04-10T09:29:56.312Z,997.81
2019-04-10T09:30:55.251Z,997.87
2019-04-10T09:31:53.720Z,997.95
2019-04-10T09:32:52.709Z,997.87
2019-04-10T09:33:50.070Z,997.93
2019-04-10T09:34:49.853Z,997.87
2019-04-10T09:35:48.774Z,997.9
2019-04-10T09:36:46.143Z,997.86
2019-04-10T09:37:44.729Z,997.88
2019-04-10T09:38:44.111Z,997.86
2019-04-10T09:39:41.905Z,997.86
2019-04-10T09:40:40.544Z,997.93
2019-04-10T09:41:39.075Z,997.86
2019-04-10T09:42:37.667Z,997.95
2019-04-10T09:43:36.258Z,997.91
2019-04-10T09:44:35.897Z,997.85
2019-04-10T09:45:33.767Z,997.89
2019-04-10T09:46:33.177Z,997.87
2019-04-10T09:47:31.002Z,997.89
2019-04-10T09:48:29.636Z,997.9
2019-04-10T09:49:35.312Z,997.97
2019-04-10T09:50:27.655Z,997.92
2019-04-10T09:51:25.670Z,997.92
2019-04-10T09:52:24.401Z,997.98
2019-04-10T09:53:23.106Z,997.96
2019-04-10T09:54:21.836Z,997.93
2019-04-10T09:55:20.387Z,997.96
2019-04-10T09:56:19.337Z,997.99
2019-04-10T09:57:17.893Z,997.96
2019-04-10T09:58:17.543Z,997.98
2019-04-10T09:59:15.996Z,997.96
2019-04-10T10:00:13.805Z,998.02
2019-04-10T10:01:13.689Z,997.98
2019-04-10T10:02:11.260Z,997.97
2019-04-10T10:03:09.869Z,997.95
2019-04-10T10:04:08.948Z,997.87
2019-04-10T10:05:08.147Z,998.01
2019-04-10T10:06:06.883Z,997.99
2019-04-10T10:08:46.076Z,997.89
2019-04-10T10:09:45.141Z,997.92
2019-04-10T10:10:43.429Z,997.93
2019-04-10T10:37:32.345Z,997.94
2019-04-10T10:38:30.068Z,997.97
2019-04-10T10:39:28.793Z,997.99
2019-04-10T10:40:27.629Z,998.01
2019-04-10T10:41:26.393Z,997.99
2019-04-10T10:42:24.629Z,997.93
2019-04-10T10:43:24.485Z,998.02
2019-04-10T10:44:21.991Z,998
2019-04-10T10:45:20.803Z,998.02
2019-04-10T10:46:19.706Z,998.02
2019-04-10T10:47:18.091Z,998.03
2019-04-10T10:48:17.456Z,998
2019-04-10T10:49:15.919Z,998.04
2019-04-10T10:52:55.536Z,998.12
2019-04-10T10:53:53.116Z,998.02
2019-04-10T10:54:51.675Z,998.02
2019-04-10T10:55:50.665Z,998.01
2019-04-10T10:56:49.308Z,998.01
2019-04-10T10:57:49.025Z,997.99
2019-04-10T10:58:46.540Z,997.99
2019-04-10T10:59:46.027Z,998.03
2019-04-10T11:00:43.701Z,998.08
2019-04-10T11:01:42.348Z,998.07
2019-04-10T11:02:41.517Z,998.14
2019-04-10T11:03:40.451Z,998.08
2019-04-10T11:04:38.514Z,998.08
2019-04-10T11:05:37.227Z,998.14
2019-04-10T11:06:48.046Z,998.05
2019-04-10T11:07:35.237Z,998.03
2019-04-10T11:08:33.286Z,998.09
2019-04-10T11:09:32.378Z,998.04
2019-04-10T11:10:31.419Z,998.06
2019-04-10T11:11:30.654Z,998.09
2019-04-10T11:12:28.093Z,998.05
2019-04-10T11:13:26.603Z,998.12
2019-04-10T11:21:29.940Z,998.12
2019-04-10T11:22:27.673Z,998.1
2019-04-10T11:23:26.210Z,998.18
2019-04-10T11:24:25.424Z,998.09
2019-04-10T11:25:23.735Z,998.04
2019-04-10T11:26:24.063Z,998.09
2019-04-10T11:27:20.695Z,998.1
2019-04-10T11:28:20.579Z,998.12
2019-04-10T11:29:19.356Z,998.07
2019-04-10T11:30:18.258Z,998.18
2019-04-10T11:31:15.940Z,998.12
2019-04-10T11:32:14.622Z,998.14
2019-04-10T11:33:13.167Z,998.1
2019-04-10T11:34:11.782Z,998.08
2019-04-10T11:35:11.154Z,998.06
2019-04-10T11:36:09.821Z,998.05
2019-04-10T11:37:24.019Z,998.1
2019-04-10T11:38:07.171Z,998.12
2019-04-10T11:39:14.359Z,998.05
2019-04-10T11:40:05.058Z,998.05
2019-04-10T11:41:03.437Z,998.1
2019-04-10T11:42:01.839Z,998.07
2019-04-10T11:43:02.914Z,998.03
2019-04-10T11:43:58.701Z,998.07
2019-04-10T11:44:57.308Z,998.13
2019-04-10T11:45:58.603Z,998.13
2019-04-10T11:46:55.519Z,998.1
2019-04-10T11:47:53.287Z,998.08
2019-04-10T11:48:54.528Z,998.08
2019-04-10T11:49:50.675Z,998.08
2019-04-10T11:50:51.002Z,998.06
2019-04-10T11:53:31.706Z,998.07
2019-04-10T11:54:30.361Z,998.03
2019-04-10T11:55:28.184Z,998.06
2019-04-10T11:56:26.848Z,998.02
2019-04-10T11:57:26.343Z,998.07
2019-04-10T11:58:25.112Z,998.06
2019-04-10T11:59:23.699Z,998.05
2019-04-10T12:03:01.428Z,998.07
2019-04-10T12:04:00.368Z,998.13
2019-04-10T12:05:03.297Z,998.1
2019-04-10T12:05:59.252Z,998.17
2019-04-10T12:06:57.808Z,998.11
2019-04-10T12:08:20.786Z,998.06
2019-04-10T12:09:13.069Z,998.05
2019-04-10T12:11:08.658Z,998.2
2019-04-10T12:11:49.187Z,998.1
2019-04-10T12:12:48.116Z,998.1
2019-04-10T12:13:46.505Z,998.15
2019-04-10T12:14:45.854Z,998.12
2019-04-10T12:15:44.867Z,998.13
2019-04-10T12:16:42.412Z,998.07
2019-04-10T12:17:42.924Z,998.14
2019-04-10T12:18:40.526Z,998.1
2019-04-10T12:19:38.424Z,998.11
2019-04-10T12:20:37.475Z,998.13
2019-04-10T12:21:35.833Z,998.17
2019-04-10T12:22:34.310Z,998.11
2019-04-10T12:31:07.916Z,998.26
2019-04-10T12:32:06.214Z,998.21
2019-04-10T12:33:05.368Z,998.24
2019-04-10T12:34:03.260Z,998.22
2019-04-10T12:35:01.645Z,998.23
2019-04-10T12:36:00.411Z,998.24
2019-04-10T12:36:59.020Z,998.21
2019-04-10T12:38:02.795Z,998.22
2019-04-10T12:38:56.422Z,998.23
2019-04-10T12:39:55.157Z,998.27
2019-04-10T12:40:53.795Z,998.22
2019-04-10T12:41:52.647Z,998.18
2019-04-10T12:42:52.351Z,998.19
2019-04-10T12:43:50.137Z,998.26
2019-04-10T12:44:49.295Z,998.27
2019-04-10T12:45:48.322Z,998.25
2019-04-10T12:46:46.070Z,998.28
2019-04-10T12:47:44.680Z,998.34
2019-04-10T12:48:43.835Z,998.28
2019-04-10T12:49:42.267Z,998.24
2019-04-10T12:50:41.300Z,998.27
2019-04-10T12:51:39.828Z,998.23
2019-04-10T12:53:47.905Z,998.24
2019-04-10T12:54:47.015Z,998.23
2019-04-10T12:55:45.852Z,998.27
2019-04-10T12:56:44.240Z,998.23
2019-04-10T12:57:43.452Z,998.24
2019-04-10T12:58:42.592Z,998.3
2019-04-10T12:59:41.630Z,998.24
2019-04-10T13:00:41.003Z,998.32
2019-04-10T13:01:38.561Z,998.33
2019-04-10T13:02:36.950Z,998.35
2019-04-10T13:03:35.624Z,998.31
2019-04-10T13:04:34.459Z,998.27
2019-04-10T13:05:33.336Z,998.28
2019-04-10T13:06:31.954Z,998.3
2019-04-10T13:07:31.442Z,998.27
2019-04-10T13:08:47.090Z,998.32
2019-04-10T13:09:27.938Z,998.32
2019-04-10T13:10:27.416Z,998.4
2019-04-10T13:13:11.531Z,998.3
2019-04-10T13:14:10.461Z,998.27
2019-04-10T13:15:08.342Z,998.27
2019-04-10T13:16:07.789Z,998.23
2019-04-10T13:17:06.762Z,998.19
2019-04-10T13:18:05.774Z,998.31
2019-04-10T13:19:03.458Z,998.26
2019-04-10T13:20:02.003Z,998.32
2019-04-10T13:21:00.653Z,998.28
2019-04-10T13:21:59.956Z,998.26
2019-04-10T13:22:58.255Z,998.2
2019-04-10T13:23:57.239Z,998.22
2019-04-10T13:24:55.491Z,998.23
2019-04-10T13:25:58.030Z,998.28
2019-04-10T13:26:52.832Z,998.2
2019-04-10T13:27:51.179Z,998.19
2019-04-10T13:28:49.830Z,998.23
2019-04-10T13:29:48.794Z,998.24
2019-04-10T13:30:53.082Z,998.23
2019-04-10T13:31:46.686Z,998.25
2019-04-10T13:32:44.783Z,998.2
2019-04-10T13:33:43.332Z,998.21
2019-04-10T13:34:41.918Z,998.27
2019-04-10T13:41:32.378Z,998.17
2019-04-10T13:42:31.596Z,998.28
2019-04-10T13:43:29.717Z,998.18
2019-04-10T13:46:10.811Z,998.25
2019-04-10T13:47:09.035Z,998.26
2019-04-10T13:48:08.135Z,998.26
2019-04-10T13:49:06.051Z,998.26
2019-04-10T13:50:04.474Z,998.18
2019-04-10T13:51:03.344Z,998.24
2019-04-10T13:52:01.683Z,998.25
2019-04-10T13:53:00.267Z,998.26
2019-04-10T13:53:58.821Z,998.24
2019-04-10T13:54:57.451Z,998.29
2019-04-10T13:55:56.875Z,998.34
2019-04-10T13:56:55.234Z,998.28
2019-04-10T13:57:53.670Z,998.25
2019-04-10T13:58:52.975Z,998.26
2019-04-10T13:59:51.449Z,998.28
2019-04-10T14:00:52.056Z,998.28
2019-04-10T14:01:49.933Z,998.35
2019-04-10T14:02:47.929Z,998.28
2019-04-10T14:03:46.911Z,998.29
2019-04-10T14:04:45.217Z,998.34
2019-04-10T14:05:43.687Z,998.38
2019-04-10T14:06:42.256Z,998.35
2019-04-10T14:07:42.202Z,998.38
2019-04-10T14:08:58.309Z,998.29
2019-04-10T14:09:46.086Z,998.26
2019-04-10T14:10:39.883Z,998.32
2019-04-10T14:11:35.943Z,998.33
2019-04-10T14:12:35.320Z,998.36
2019-04-10T14:14:10.670Z,998.34
2019-04-10T14:15:09.810Z,998.36
2019-04-10T14:16:08.514Z,998.34
2019-04-10T14:17:06.885Z,998.36
2019-04-10T14:18:06.083Z,998.39
2019-04-10T14:19:03.918Z,998.32
2019-04-10T14:20:02.847Z,998.3
2019-04-10T14:22:43.809Z,998.32
2019-04-10T14:23:41.801Z,998.38
2019-04-10T14:26:06.402Z,998.33
2019-04-10T14:27:04.084Z,998.34
2019-04-10T14:28:03.094Z,998.33
2019-04-10T14:31:58.659Z,998.31
2019-04-10T14:32:56.674Z,998.37
2019-04-10T14:33:56.272Z,998.34